createdAt,value
2022-11-28T00:02:20.852Z,3.50
2022-11-28T00:04:51.713Z,3.50
2022-11-28T00:07:19.715Z,3.65
2022-11-28T00:09:47.721Z,4.10
2022-11-28T00:12:15.365Z,4.22
2022-11-28T00:14:43.190Z,4.57
2022-11-28T00:17:10.935Z,4.80
2022-11-28T00:19:39.911Z,5.07
2022-11-28T00:22:07.544Z,5.55
2022-11-28T00:24:35.202Z,6.18
2022-11-28T00:27:02.829Z,6.90
2022-11-28T00:29:30.506Z,7.43
2022-11-28T00:31:58.221Z,7.70
2022-11-28T00:34:25.899Z,8.50
2022-11-28T00:36:54.914Z,9.25
2022-11-28T00:39:22.560Z,9.70
2022-11-28T00:41:50.283Z,9.27
2022-11-28T00:44:17.915Z,10.32
2022-11-28T00:46:45.556Z,10.85
2022-11-28T00:49:13.209Z,11.88
2022-11-28T00:51:40.860Z,12.00
2022-11-28T00:54:09.893Z,13.02
2022-11-28T00:56:38.555Z,12.50
2022-11-28T00:59:06.284Z,13.05
2022-11-28T01:01:35.270Z,13.35
2022-11-28T01:04:04.428Z,14.43
2022-11-28T01:06:33.137Z,14.50
2022-11-28T01:09:01.515Z,15.43
2022-11-28T01:11:30.618Z,17.13
2022-11-28T01:13:58.867Z,17.13
2022-11-28T01:16:26.667Z,18.17
2022-11-28T01:18:54.440Z,19.30
2022-11-28T01:21:22.178Z,20.35
2022-11-28T01:23:49.797Z,21.92
2022-11-28T01:26:18.885Z,21.92
2022-11-28T01:28:47.861Z,23.10
2022-11-28T01:31:16.912Z,24.10
2022-11-28T01:33:44.670Z,25.17
2022-11-28T01:36:12.712Z,26.23
2022-11-28T01:38:40.405Z,27.35
2022-11-28T01:41:08.134Z,27.88
2022-11-28T01:43:35.939Z,29.75
2022-11-28T01:46:05.459Z,31.50
2022-11-28T01:48:35.017Z,32.10
2022-11-28T01:51:04.038Z,33.92
2022-11-28T01:53:32.053Z,34.80
2022-11-28T01:56:02.037Z,36.28
2022-11-28T01:58:29.732Z,38.35
2022-11-28T02:00:57.420Z,39.08
2022-11-28T02:03:31.728Z,42.05
2022-11-28T02:05:59.358Z,40.67
2022-11-28T02:08:27.053Z,43.92
2022-11-28T02:11:07.462Z,44.63
2022-11-28T02:13:40.783Z,44.83
2022-11-28T02:16:18.694Z,49.75
2022-11-28T02:18:56.311Z,51.10
2022-11-28T02:21:29.058Z,51.08
2022-11-28T02:24:08.703Z,53.70
2022-11-28T02:27:09.138Z,55.25
2022-11-28T02:30:03.161Z,58.67
2022-11-28T02:32:49.814Z,60.08
2022-11-28T02:35:19.154Z,60.60
2022-11-28T02:37:51.383Z,66.50
2022-11-28T02:40:22.737Z,68.63
2022-11-28T02:42:55.625Z,67.40
2022-11-28T02:45:25.216Z,70.53
2022-11-28T02:47:57.007Z,72.13
2022-11-28T02:50:26.252Z,74.80
2022-11-28T02:52:54.807Z,74.55
2022-11-28T02:55:22.472Z,78.72
2022-11-28T02:57:51.131Z,76.20
2022-11-28T03:00:25.706Z,80.90
2022-11-28T03:03:00.682Z,86.57
2022-11-28T03:05:30.134Z,83.85
2022-11-28T03:08:01.724Z,86.57
2022-11-28T03:10:30.770Z,87.03
2022-11-28T03:13:03.795Z,89.57
2022-11-28T03:15:33.598Z,86.78
2022-11-28T03:18:05.345Z,90.97
2022-11-28T03:20:37.844Z,91.43
2022-11-28T03:23:12.664Z,92.28
2022-11-28T03:25:44.245Z,93.65
2022-11-28T03:28:13.314Z,95.45
2022-11-28T03:30:43.004Z,93.00
2022-11-28T03:33:11.972Z,95.68
2022-11-28T03:35:41.401Z,95.28
2022-11-28T03:38:11.583Z,93.05
2022-11-28T03:40:42.057Z,94.35
2022-11-28T03:43:10.735Z,95.40
2022-11-28T03:45:39.986Z,95.60
2022-11-28T03:48:10.769Z,95.90
2022-11-28T03:50:41.698Z,96.15
2022-11-28T03:53:12.563Z,94.55
2022-11-28T03:55:41.825Z,93.72
2022-11-28T03:58:11.337Z,94.28
2022-11-28T04:00:43.447Z,95.68
2022-11-28T04:03:12.658Z,94.18
2022-11-28T04:05:45.431Z,92.50
2022-11-28T04:08:15.195Z,93.35
2022-11-28T04:10:44.152Z,91.85
2022-11-28T04:13:15.545Z,91.13
2022-11-28T04:15:46.622Z,91.90
2022-11-28T04:18:19.451Z,92.78
2022-11-28T04:20:50.569Z,89.82
2022-11-28T04:23:19.025Z,89.80
2022-11-28T04:25:49.445Z,88.68
2022-11-28T04:28:19.386Z,88.07
2022-11-28T04:30:47.343Z,88.30
2022-11-28T04:33:15.041Z,86.45
2022-11-28T04:35:43.175Z,84.90
2022-11-28T04:38:12.306Z,83.72
2022-11-28T04:40:43.493Z,82.88
2022-11-28T04:43:14.779Z,84.28
2022-11-28T04:45:45.148Z,83.78
2022-11-28T04:48:12.837Z,81.13
2022-11-28T04:50:44.292Z,78.68
2022-11-28T04:53:14.960Z,77.63
2022-11-28T04:55:45.059Z,78.00
2022-11-28T04:58:15.054Z,76.43
2022-11-28T05:00:42.768Z,75.75
2022-11-28T05:03:11.407Z,73.30
2022-11-28T05:05:45.850Z,72.93
2022-11-28T05:08:14.874Z,71.97
2022-11-28T05:10:42.637Z,73.28
2022-11-28T05:13:10.348Z,70.57
2022-11-28T05:15:38.014Z,67.95
2022-11-28T05:18:06.011Z,66.97
2022-11-28T05:20:33.721Z,67.38
2022-11-28T05:23:01.467Z,65.60
2022-11-28T05:25:30.458Z,64.93
2022-11-28T05:27:58.147Z,63.47
2022-11-28T05:30:25.849Z,61.72
2022-11-28T05:32:53.553Z,62.42
2022-11-28T05:35:21.325Z,61.63
2022-11-28T05:37:49.023Z,60.10
2022-11-28T05:40:17.950Z,59.53
2022-11-28T05:42:46.974Z,59.00
2022-11-28T05:45:14.758Z,58.53
2022-11-28T05:47:42.476Z,57.67
2022-11-28T05:50:10.798Z,55.60
2022-11-28T05:52:38.529Z,56.63
2022-11-28T05:55:07.273Z,55.78
2022-11-28T05:57:34.991Z,52.92
2022-11-28T06:00:05.445Z,53.55
2022-11-28T06:02:39.389Z,52.58
2022-11-28T06:05:34.742Z,50.15
2022-11-28T06:07:55.346Z,50.60
2022-11-28T06:10:23.381Z,47.25
2022-11-28T06:12:51.084Z,47.30
2022-11-28T06:15:20.048Z,47.72
2022-11-28T06:17:47.734Z,46.63
2022-11-28T06:20:15.490Z,44.38
2022-11-28T06:22:43.158Z,43.08
2022-11-28T06:25:10.852Z,42.38
2022-11-28T06:27:38.579Z,41.50
2022-11-28T06:30:07.725Z,41.33
2022-11-28T06:32:36.757Z,39.55
2022-11-28T06:35:04.744Z,39.00
2022-11-28T06:37:32.416Z,38.53
2022-11-28T06:40:00.407Z,37.90
2022-11-28T06:42:28.117Z,37.53
2022-11-28T06:44:55.818Z,37.42
2022-11-28T06:47:23.535Z,35.90
2022-11-28T06:49:52.713Z,34.40
2022-11-28T06:52:20.421Z,33.80
2022-11-28T06:54:48.106Z,34.22
2022-11-28T06:57:15.803Z,32.90
2022-11-28T06:59:43.644Z,31.88
2022-11-28T07:02:11.777Z,32.10
2022-11-28T07:04:39.661Z,32.22
2022-11-28T07:07:12.538Z,31.40
2022-11-28T07:09:43.130Z,29.67
2022-11-28T07:12:10.939Z,30.27
2022-11-28T07:14:38.718Z,29.27
2022-11-28T07:17:06.528Z,29.27
2022-11-28T07:19:34.398Z,28.15
2022-11-28T07:22:02.080Z,27.98
2022-11-28T07:24:31.271Z,27.15
2022-11-28T07:26:58.966Z,26.52
2022-11-28T07:29:31.289Z,25.98
2022-11-28T07:31:59.056Z,26.05
2022-11-28T07:34:26.792Z,24.60
2022-11-28T07:36:54.475Z,24.02
2022-11-28T07:39:22.183Z,23.25
2022-11-28T07:41:51.198Z,23.33
2022-11-28T07:44:19.031Z,22.55
2022-11-28T07:46:46.903Z,22.70
2022-11-28T07:49:15.151Z,21.80
2022-11-28T07:51:42.871Z,21.40
2022-11-28T07:54:10.577Z,20.35
2022-11-28T07:57:10.946Z,20.02
2022-11-28T07:59:28.098Z,19.83
2022-11-28T08:01:55.887Z,19.00
2022-11-28T08:04:23.774Z,18.95
2022-11-28T08:06:51.490Z,17.98
2022-11-28T08:09:19.317Z,17.13
2022-11-28T08:11:46.992Z,16.92
2022-11-28T08:14:15.092Z,16.85
2022-11-28T08:16:44.970Z,16.00
2022-11-28T08:19:12.908Z,15.80
2022-11-28T08:21:40.623Z,15.40
2022-11-28T08:24:08.804Z,15.00
2022-11-28T08:26:36.653Z,14.52
2022-11-28T08:29:04.423Z,14.40
2022-11-28T08:31:33.231Z,13.25
2022-11-28T08:34:03.250Z,13.43
2022-11-28T08:36:30.999Z,13.40
2022-11-28T08:39:22.282Z,13.45
2022-11-28T08:41:48.141Z,12.02
2022-11-28T08:44:16.138Z,11.90
2022-11-28T08:46:43.923Z,12.48
2022-11-28T08:49:12.953Z,11.80
2022-11-28T08:51:40.715Z,11.40
2022-11-28T08:54:08.799Z,11.25
2022-11-28T08:56:36.527Z,11.07
2022-11-28T08:59:04.466Z,11.25
2022-11-28T09:01:32.368Z,10.70
2022-11-28T09:04:00.212Z,10.77
2022-11-28T09:06:29.237Z,10.45
2022-11-28T09:08:56.930Z,10.20
2022-11-28T09:11:24.679Z,9.80
2022-11-28T09:13:52.450Z,9.88
2022-11-28T09:16:20.263Z,9.27
2022-11-28T09:18:48.032Z,9.30
2022-11-28T09:21:16.307Z,9.05
2022-11-28T09:23:45.640Z,8.80
2022-11-28T09:26:14.290Z,9.30
2022-11-28T09:28:42.016Z,8.40
2022-11-28T09:31:09.912Z,8.45
2022-11-28T09:33:37.693Z,8.07
2022-11-28T09:36:06.294Z,8.75
2022-11-28T09:38:33.978Z,8.30
2022-11-28T09:41:03.668Z,7.95
2022-11-28T09:43:33.510Z,7.90
2022-11-28T09:46:02.105Z,7.30
2022-11-28T09:48:31.315Z,7.63
2022-11-28T09:51:00.892Z,7.78
2022-11-28T09:53:31.583Z,7.00
2022-11-28T09:56:00.206Z,7.13
2022-11-28T09:58:31.399Z,7.13
2022-11-28T10:01:02.488Z,7.25
2022-11-28T10:03:36.895Z,6.55
2022-11-28T10:06:10.666Z,6.80
2022-11-28T10:08:42.097Z,6.93
2022-11-28T10:11:12.478Z,6.78
2022-11-28T10:14:07.136Z,6.80
2022-11-28T10:16:40.671Z,6.50
2022-11-28T10:19:25.536Z,6.53
2022-11-28T10:21:59.561Z,6.20
2022-11-28T10:24:36.195Z,6.32
2022-11-28T10:27:05.386Z,5.93
2022-11-28T10:29:41.693Z,5.78
2022-11-28T10:32:11.874Z,6.18
2022-11-28T10:34:41.801Z,5.93
2022-11-28T10:37:12.626Z,6.00
2022-11-28T10:39:40.822Z,5.40
2022-11-28T10:42:14.051Z,5.90
2022-11-28T10:45:12.835Z,5.78
2022-11-28T10:48:37.589Z,5.50
2022-11-28T10:51:00.640Z,5.57
2022-11-28T10:53:36.069Z,5.60
2022-11-28T10:56:11.702Z,5.65
2022-11-28T10:58:42.804Z,5.60
2022-11-28T11:01:12.358Z,5.22
2022-11-28T11:03:40.133Z,5.35
2022-11-28T11:06:07.886Z,5.90
2022-11-28T11:08:36.707Z,5.40
2022-11-28T11:11:06.288Z,5.30
2022-11-28T11:13:34.773Z,5.20
2022-11-28T11:16:04.004Z,5.40
2022-11-28T11:18:36.039Z,4.95
2022-11-28T11:21:12.153Z,5.85
2022-11-28T11:23:39.782Z,5.32
2022-11-28T11:26:10.062Z,5.20
2022-11-28T11:28:41.633Z,5.25
2022-11-28T11:31:16.826Z,5.00
2022-11-28T11:33:45.862Z,4.97
2022-11-28T11:36:27.384Z,4.95
2022-11-28T11:39:06.414Z,4.85
2022-11-28T11:41:34.062Z,4.95
2022-11-28T11:44:30.655Z,4.90
2022-11-28T11:47:00.526Z,5.00
2022-11-28T11:49:34.153Z,5.05
2022-11-28T11:52:03.035Z,5.25
2022-11-28T11:54:30.864Z,4.90
2022-11-28T11:57:24.878Z,4.97
2022-11-28T11:59:48.235Z,5.28
2022-11-28T12:02:20.635Z,5.30
2022-11-28T12:04:55.192Z,5.13
2022-11-28T12:07:26.089Z,5.15
2022-11-28T12:09:54.821Z,4.90
2022-11-28T12:12:23.295Z,4.82
2022-11-28T12:14:51.039Z,5.10
2022-11-28T12:17:47.833Z,4.85
2022-11-28T12:20:30.102Z,4.78
2022-11-28T12:23:01.422Z,5.00
2022-11-28T12:25:33.275Z,4.82
2022-11-28T12:28:05.368Z,4.82
2022-11-28T12:30:44.606Z,4.88
2022-11-28T12:33:20.468Z,5.18
2022-11-28T12:35:53.015Z,4.97
2022-11-28T12:38:26.203Z,5.18
2022-11-28T12:41:11.461Z,5.47
2022-11-28T12:43:46.728Z,4.95
2022-11-28T12:46:18.247Z,4.90
2022-11-28T12:48:54.809Z,4.65
2022-11-28T12:51:30.875Z,4.70
2022-11-28T12:54:04.221Z,6.13
2022-11-28T12:56:41.988Z,5.25
2022-11-28T12:59:14.054Z,4.78
2022-11-28T13:01:48.965Z,4.60
2022-11-28T13:04:22.394Z,4.63
2022-11-28T13:06:54.479Z,4.93
2022-11-28T13:09:28.763Z,4.90
2022-11-28T13:12:03.441Z,5.80
2022-11-28T13:14:36.792Z,5.30
2022-11-28T13:17:13.380Z,4.95
2022-11-28T13:19:44.071Z,5.15
2022-11-28T13:22:15.127Z,5.82
2022-11-28T13:24:44.578Z,5.70
2022-11-28T13:27:16.737Z,5.72
2022-11-28T13:29:48.798Z,5.80
2022-11-28T13:32:18.510Z,6.03
2022-11-28T13:34:46.608Z,5.25
2022-11-28T13:40:08.563Z,5.85
2022-11-28T13:45:32.222Z,5.40
2022-11-28T13:48:00.778Z,5.93
2022-11-28T13:50:34.073Z,6.28
2022-11-28T13:53:03.307Z,5.30
2022-11-28T13:55:48.764Z,5.38
2022-11-28T13:58:24.630Z,6.05
2022-11-28T14:01:04.517Z,7.75
2022-11-28T14:03:32.544Z,8.50
2022-11-28T14:06:00.918Z,6.40
2022-11-28T14:08:31.780Z,6.10
2022-11-28T14:11:08.663Z,5.63
2022-11-28T14:13:49.877Z,8.05
2022-11-28T14:16:23.428Z,9.20
2022-11-28T14:19:00.467Z,7.63
2022-11-28T14:21:34.372Z,7.75
2022-11-28T14:24:06.595Z,8.68
2022-11-28T14:26:35.419Z,6.97
2022-11-28T14:29:04.200Z,11.45
2022-11-28T14:31:32.857Z,9.85
2022-11-28T14:34:02.651Z,7.43
2022-11-28T14:36:33.727Z,7.72
2022-11-28T14:39:08.846Z,6.95
2022-11-28T14:42:10.141Z,7.75
2022-11-28T14:44:50.427Z,8.05
2022-11-28T14:47:22.062Z,7.68
2022-11-28T14:49:49.845Z,7.15
2022-11-28T14:52:39.901Z,7.30
2022-11-28T14:55:19.573Z,8.90
2022-11-28T14:57:57.961Z,6.95
2022-11-28T15:00:26.739Z,6.72
2022-11-28T15:03:23.722Z,7.05
2022-11-28T15:05:51.978Z,7.50
2022-11-28T15:08:46.984Z,7.25
2022-11-28T15:11:25.769Z,7.43
2022-11-28T15:14:09.330Z,6.65
2022-11-28T15:16:39.319Z,7.00
2022-11-28T15:19:08.738Z,7.35
2022-11-28T15:21:43.810Z,7.57
2022-11-28T15:24:36.184Z,6.93
2022-11-28T15:27:24.225Z,6.20
2022-11-28T15:29:56.067Z,6.78
2022-11-28T15:32:24.480Z,5.88
2022-11-28T15:34:53.326Z,5.85
2022-11-28T15:37:20.991Z,6.40
2022-11-28T15:39:49.379Z,5.95
2022-11-28T15:42:23.344Z,6.43
2022-11-28T15:44:52.816Z,6.63
2022-11-28T15:47:20.998Z,6.05
2022-11-28T15:49:59.372Z,6.30
2022-11-28T15:52:27.794Z,6.45
2022-11-28T15:54:55.472Z,5.97
2022-11-28T15:57:25.942Z,6.57
2022-11-28T15:59:54.497Z,6.00
2022-11-28T16:02:23.586Z,6.28
2022-11-28T16:04:52.644Z,6.13
2022-11-28T16:07:20.380Z,6.05
2022-11-28T16:09:57.373Z,5.78
2022-11-28T16:12:26.638Z,5.95
2022-11-28T16:14:58.686Z,5.78
2022-11-28T16:17:27.987Z,6.10
2022-11-28T16:19:55.886Z,6.28
2022-11-28T16:22:23.738Z,5.90
2022-11-28T16:24:52.027Z,5.75
2022-11-28T16:27:29.597Z,5.63
2022-11-28T16:29:57.277Z,5.95
2022-11-28T16:32:34.206Z,5.45
2022-11-28T16:35:03.257Z,5.32
2022-11-28T16:37:31.907Z,5.47
2022-11-28T16:40:01.954Z,5.75
2022-11-28T16:42:30.954Z,5.75
2022-11-28T16:45:03.818Z,5.70
2022-11-28T16:47:32.995Z,5.88
2022-11-28T16:50:16.054Z,5.50
2022-11-28T16:52:48.557Z,5.53
2022-11-28T16:55:41.765Z,5.65
2022-11-28T16:58:18.270Z,5.15
2022-11-28T17:00:58.016Z,5.70
2022-11-28T17:03:41.970Z,5.10
2022-11-28T17:06:14.450Z,5.85
2022-11-28T17:08:42.101Z,5.75
2022-11-28T17:11:09.843Z,5.80
2022-11-28T17:13:38.891Z,5.57
2022-11-28T17:16:07.751Z,5.15
2022-11-28T17:18:35.443Z,4.78
2022-11-28T17:21:03.264Z,5.25
2022-11-28T17:23:30.996Z,4.80
2022-11-28T17:25:58.711Z,5.32
2022-11-28T17:28:29.122Z,5.00
2022-11-28T17:30:58.332Z,4.80
2022-11-28T17:33:26.074Z,5.00
2022-11-28T17:35:53.964Z,4.97
2022-11-28T17:38:21.632Z,4.93
2022-11-28T17:40:49.321Z,5.00
2022-11-28T17:43:18.247Z,5.55
2022-11-28T17:45:46.202Z,5.18
2022-11-28T17:48:17.962Z,4.85
2022-11-28T17:50:46.749Z,4.60
2022-11-28T17:53:15.159Z,5.35
2022-11-28T17:55:43.558Z,4.75
2022-11-28T17:58:18.979Z,4.88
2022-11-28T18:00:46.938Z,4.88
2022-11-28T18:03:16.920Z,4.47
2022-11-28T18:05:46.679Z,4.60
2022-11-28T18:08:17.966Z,5.05
2022-11-28T18:10:49.397Z,4.90
2022-11-28T18:13:18.306Z,4.70
2022-11-28T18:15:47.464Z,5.18
2022-11-28T18:18:16.756Z,4.72
2022-11-28T18:20:44.503Z,4.28
2022-11-28T18:23:12.546Z,4.65
2022-11-28T18:25:42.550Z,4.57
2022-11-28T18:28:15.769Z,4.57
2022-11-28T18:30:46.716Z,4.43
2022-11-28T18:33:15.935Z,4.60
2022-11-28T18:35:43.774Z,4.65
2022-11-28T18:38:11.848Z,4.40
2022-11-28T18:40:39.986Z,4.65
2022-11-28T18:43:08.073Z,4.90
2022-11-28T18:45:35.885Z,4.43
2022-11-28T18:48:03.901Z,4.50
2022-11-28T18:50:35.404Z,4.47
2022-11-28T18:53:03.430Z,4.30
2022-11-28T18:55:31.559Z,4.70
2022-11-28T18:57:59.781Z,4.43
2022-11-28T19:00:27.615Z,4.45
2022-11-28T19:02:55.676Z,4.30
2022-11-28T19:05:23.944Z,4.30
2022-11-28T19:07:53.161Z,4.50
2022-11-28T19:10:21.116Z,4.32
2022-11-28T19:12:48.879Z,4.40
2022-11-28T19:15:17.066Z,4.00
2022-11-28T19:17:44.935Z,4.35
2022-11-28T19:20:14.758Z,4.30
2022-11-28T19:22:42.416Z,4.25
2022-11-28T19:25:11.831Z,4.43
2022-11-28T19:27:39.669Z,4.05
2022-11-28T19:30:08.749Z,4.20
2022-11-28T19:32:37.137Z,4.43
2022-11-28T19:35:05.446Z,4.03
2022-11-28T19:37:33.745Z,4.20
2022-11-28T19:40:03.010Z,4.32
2022-11-28T19:42:32.727Z,4.45
2022-11-28T19:45:00.551Z,4.10
2022-11-28T19:47:28.460Z,4.20
2022-11-28T19:49:56.368Z,4.00
2022-11-28T19:52:24.179Z,4.28
2022-11-28T19:54:52.553Z,3.95
2022-11-28T19:57:20.750Z,4.25
2022-11-28T19:59:50.386Z,4.43
2022-11-28T20:02:21.449Z,4.35
2022-11-28T20:04:49.476Z,3.90
2022-11-28T20:07:17.363Z,4.10
2022-11-28T20:09:45.446Z,3.72
2022-11-28T20:12:13.827Z,4.50
2022-11-28T20:14:41.554Z,3.67
2022-11-28T20:17:10.612Z,4.05
2022-11-28T20:19:38.322Z,4.20
2022-11-28T20:22:06.097Z,4.50
2022-11-28T20:24:34.939Z,4.00
2022-11-28T20:27:03.110Z,4.10
2022-11-28T20:29:31.033Z,4.25
2022-11-28T20:31:58.939Z,4.30
2022-11-28T20:34:29.116Z,4.55
2022-11-28T20:36:59.201Z,4.05
2022-11-28T20:39:26.904Z,4.65
2022-11-28T20:41:54.656Z,4.22
2022-11-28T20:44:22.293Z,4.45
2022-11-28T20:46:50.340Z,4.65
2022-11-28T20:49:18.154Z,4.60
2022-11-28T20:51:47.310Z,4.72
2022-11-28T20:54:14.996Z,4.40
2022-11-28T20:57:13.260Z,4.82
2022-11-28T20:59:32.047Z,4.45
2022-11-28T21:01:59.780Z,5.00
2022-11-28T21:04:27.501Z,4.90
2022-11-28T21:06:56.511Z,4.82
2022-11-28T21:09:24.277Z,5.03
2022-11-28T21:11:59.681Z,5.10
2022-11-28T21:14:28.427Z,5.50
2022-11-28T21:16:56.415Z,5.32
2022-11-28T21:19:24.189Z,5.05
2022-11-28T21:21:51.917Z,5.30
2022-11-28T21:24:20.905Z,5.55
2022-11-28T21:26:53.543Z,5.55
2022-11-28T21:29:22.288Z,5.60
2022-11-28T21:31:50.108Z,5.70
2022-11-28T21:34:19.097Z,6.07
2022-11-28T21:36:47.007Z,6.07
2022-11-28T21:39:15.715Z,6.32
2022-11-28T21:41:45.118Z,6.10
2022-11-28T21:44:13.116Z,6.43
2022-11-28T21:46:40.995Z,6.15
2022-11-28T21:49:08.874Z,6.20
2022-11-28T21:51:40.255Z,6.35
2022-11-28T21:54:08.341Z,6.30
2022-11-28T21:56:36.152Z,6.65
2022-11-28T21:59:07.277Z,6.63
2022-11-28T22:01:35.142Z,6.63
2022-11-28T22:04:04.312Z,6.43
2022-11-28T22:06:32.314Z,6.57
2022-11-28T22:11:48.250Z,6.60
2022-11-28T22:14:17.864Z,7.30
2022-11-28T22:16:45.684Z,6.63
2022-11-28T22:19:15.111Z,7.35
2022-11-28T22:21:51.814Z,7.32
2022-11-28T22:24:21.751Z,7.28
2022-11-28T22:26:49.736Z,7.18
2022-11-28T22:29:20.396Z,7.07
2022-11-28T22:31:49.965Z,8.02
2022-11-28T22:34:18.949Z,7.60
2022-11-28T22:36:46.991Z,7.63
2022-11-28T22:39:15.225Z,7.43
2022-11-28T22:41:43.199Z,7.93
2022-11-28T22:44:11.064Z,7.40
2022-11-28T22:46:40.563Z,8.00
2022-11-28T22:49:10.617Z,8.80
2022-11-28T22:51:39.143Z,8.70
2022-11-28T22:54:07.013Z,8.38
2022-11-28T22:56:36.041Z,8.65
2022-11-28T22:59:04.839Z,8.93
2022-11-28T23:01:34.079Z,9.60
2022-11-28T23:04:03.162Z,9.38
2022-11-28T23:06:31.697Z,9.70
2022-11-28T23:09:00.210Z,9.70
2022-11-28T23:11:30.223Z,10.25
2022-11-28T23:13:59.233Z,10.00
2022-11-28T23:16:29.516Z,10.27
2022-11-28T23:18:58.262Z,10.88
2022-11-28T23:21:29.855Z,10.80
2022-11-28T23:23:57.546Z,10.98
2022-11-28T23:26:27.973Z,11.00
2022-11-28T23:28:55.741Z,11.38
2022-11-28T23:31:26.362Z,11.60
2022-11-28T23:33:55.817Z,12.77
2022-11-28T23:36:25.149Z,11.95
2022-11-28T23:38:56.025Z,11.75
2022-11-28T23:41:23.709Z,12.27
2022-11-28T23:43:51.376Z,12.65
2022-11-28T23:46:19.326Z,12.90
2022-11-28T23:48:47.073Z,12.93
2022-11-28T23:51:15.215Z,13.15
2022-11-28T23:53:43.032Z,13.10
2022-11-28T23:56:13.010Z,13.95
2022-11-28T23:58:40.790Z,14.23
